sensor_id;sensor_type;location;lat;lon;timestamp;pressure;altitude;pressure_sealevel;temperature;humidity
75794;BME280;64418;47.536;19.074;2023-12-14T00:00:42;98953.41;;;3.69;100.00
75794;BME280;64418;47.536;19.074;2023-12-14T00:03:09;98951.47;;;3.63;100.00
75794;BME280;64418;47.536;19.074;2023-12-14T00:05:35;98957.87;;;3.62;100.00
75794;BME280;64418;47.536;19.074;2023-12-14T00:08:01;98964.50;;;3.66;100.00
75794;BME280;64418;47.536;19.074;2023-12-14T00:10:27;98950.47;;;3.64;100.00
75794;BME280;64418;47.536;19.074;2023-12-14T00:12:53;98946.34;;;3.62;100.00
75794;BME280;64418;47.536;19.074;2023-12-14T00:15:20;98947.41;;;3.67;100.00
75794;BME280;64418;47.536;19.074;2023-12-14T00:17:45;98946.38;;;3.68;100.00
75794;BME280;64418;47.536;19.074;2023-12-14T00:20:13;98955.66;;;3.72;100.00
75794;BME280;64418;47.536;19.074;2023-12-14T00:22:39;98952.59;;;3.75;100.00
75794;BME280;64418;47.536;19.074;2023-12-14T00:25:06;98951.78;;;3.81;100.00
75794;BME280;64418;47.536;19.074;2023-12-14T00:27:32;98948.09;;;3.82;100.00
75794;BME280;64418;47.536;19.074;2023-12-14T00:29:59;98951.41;;;3.84;100.00
75794;BME280;64418;47.536;19.074;2023-12-14T00:32:25;98969.12;;;3.85;100.00
75794;BME280;64418;47.536;19.074;2023-12-14T00:34:51;98972.84;;;3.84;100.00
75794;BME280;64418;47.536;19.074;2023-12-14T00:37:19;98986.41;;;3.83;100.00
75794;BME280;64418;47.536;19.074;2023-12-14T00:39:45;98992.59;;;3.83;100.00
75794;BME280;64418;47.536;19.074;2023-12-14T00:42:12;99002.69;;;3.81;100.00
75794;BME280;64418;47.536;19.074;2023-12-14T00:44:37;99015.28;;;3.81;100.00
75794;BME280;64418;47.536;19.074;2023-12-14T00:47:04;99026.78;;;3.81;100.00
75794;BME280;64418;47.536;19.074;2023-12-14T00:49:29;99030.94;;;3.84;100.00
75794;BME280;64418;47.536;19.074;2023-12-14T00:51:55;99038.16;;;3.83;100.00
75794;BME280;64418;47.536;19.074;2023-12-14T00:54:22;99049.47;;;3.85;100.00
75794;BME280;64418;47.536;19.074;2023-12-14T00:56:48;99051.13;;;3.86;100.00
75794;BME280;64418;47.536;19.074;2023-12-14T00:59:14;99052.41;;;3.91;100.00
75794;BME280;64418;47.536;19.074;2023-12-14T01:01:42;99065.66;;;3.99;100.00
75794;BME280;64418;47.536;19.074;2023-12-14T01:04:08;99074.72;;;3.98;100.00
75794;BME280;64418;47.536;19.074;2023-12-14T01:06:34;99079.66;;;4.01;100.00
75794;BME280;64418;47.536;19.074;2023-12-14T01:09:00;99079.03;;;3.99;100.00
75794;BME280;64418;47.536;19.074;2023-12-14T01:11:27;99075.94;;;3.95;100.00
75794;BME280;64418;47.536;19.074;2023-12-14T01:13:53;99079.22;;;3.97;100.00
75794;BME280;64418;47.536;19.074;2023-12-14T01:16:19;99083.38;;;4.00;100.00
75794;BME280;64418;47.536;19.074;2023-12-14T01:18:45;99079.66;;;4.01;100.00
75794;BME280;64418;47.536;19.074;2023-12-14T01:21:11;99066.91;;;4.03;100.00
75794;BME280;64418;47.536;19.074;2023-12-14T01:23:38;99055.78;;;4.06;100.00
75794;BME280;64418;47.536;19.074;2023-12-14T01:26:04;99039.91;;;4.04;100.00
75794;BME280;64418;47.536;19.074;2023-12-14T01:28:33;99038.69;;;4.07;100.00
75794;BME280;64418;47.536;19.074;2023-12-14T01:30:59;99027.78;;;4.08;100.00
75794;BME280;64418;47.536;19.074;2023-12-14T01:33:25;99014.59;;;4.07;100.00
75794;BME280;64418;47.536;19.074;2023-12-14T01:35:51;99011.25;;;4.05;100.00
75794;BME280;64418;47.536;19.074;2023-12-14T01:38:17;99008.38;;;4.00;100.00
75794;BME280;64418;47.536;19.074;2023-12-14T01:40:42;99002.22;;;4.06;100.00
75794;BME280;64418;47.536;19.074;2023-12-14T01:43:09;99004.88;;;4.06;100.00
75794;BME280;64418;47.536;19.074;2023-12-14T01:45:36;99006.31;;;4.02;100.00
75794;BME280;64418;47.536;19.074;2023-12-14T01:48:02;98999.69;;;3.98;100.00
75794;BME280;64418;47.536;19.074;2023-12-14T01:50:28;98998.44;;;3.94;100.00
75794;BME280;64418;47.536;19.074;2023-12-14T01:52:54;98980.81;;;3.78;100.00
75794;BME280;64418;47.536;19.074;2023-12-14T01:55:19;98998.38;;;3.80;100.00
75794;BME280;64418;47.536;19.074;2023-12-14T01:57:45;98989.69;;;3.78;100.00
75794;BME280;64418;47.536;19.074;2023-12-14T02:00:18;98985.75;;;3.74;100.00
75794;BME280;64418;47.536;19.074;2023-12-14T02:02:48;98991.94;;;3.75;100.00
75794;BME280;64418;47.536;19.074;2023-12-14T02:05:14;98994.00;;;3.73;100.00
75794;BME280;64418;47.536;19.074;2023-12-14T02:07:40;99003.22;;;3.70;100.00
75794;BME280;64418;47.536;19.074;2023-12-14T02:10:07;99014.78;;;3.71;100.00
75794;BME280;64418;47.536;19.074;2023-12-14T02:12:33;99035.00;;;3.73;100.00
75794;BME280;64418;47.536;19.074;2023-12-14T02:14:59;99045.72;;;3.73;100.00
75794;BME280;64418;47.536;19.074;2023-12-14T02:17:26;99049.41;;;3.72;100.00
75794;BME280;64418;47.536;19.074;2023-12-14T02:19:53;99040.97;;;3.75;100.00
75794;BME280;64418;47.536;19.074;2023-12-14T02:22:19;99034.59;;;3.76;100.00
75794;BME280;64418;47.536;19.074;2023-12-14T02:24:46;99037.91;;;3.78;100.00
75794;BME280;64418;47.536;19.074;2023-12-14T02:27:12;99031.09;;;3.76;100.00
75794;BME280;64418;47.536;19.074;2023-12-14T02:29:38;99037.28;;;3.76;100.00
75794;BME280;64418;47.536;19.074;2023-12-14T02:32:04;99030.91;;;3.77;100.00
75794;BME280;64418;47.536;19.074;2023-12-14T02:34:30;99032.53;;;3.78;100.00
75794;BME280;64418;47.536;19.074;2023-12-14T02:36:56;99038.13;;;3.77;100.00
75794;BME280;64418;47.536;19.074;2023-12-14T02:39:21;99032.53;;;3.78;100.00
75794;BME280;64418;47.536;19.074;2023-12-14T02:41:49;99035.44;;;3.77;100.00
75794;BME280;64418;47.536;19.074;2023-12-14T02:44:14;99045.72;;;3.73;100.00
75794;BME280;64418;47.536;19.074;2023-12-14T02:46:40;99064.63;;;3.72;100.00
75794;BME280;64418;47.536;19.074;2023-12-14T02:49:06;99069.16;;;3.71;100.00
75794;BME280;64418;47.536;19.074;2023-12-14T02:51:32;99069.16;;;3.71;100.00
75794;BME280;64418;47.536;19.074;2023-12-14T02:53:58;99065.06;;;3.75;100.00
75794;BME280;64418;47.536;19.074;2023-12-14T02:56:24;99056.84;;;3.77;100.00
75794;BME280;64418;47.536;19.074;2023-12-14T02:58:51;99047.16;;;3.76;100.00
75794;BME280;64418;47.536;19.074;2023-12-14T03:01:19;99038.31;;;3.82;100.00
75794;BME280;64418;47.536;19.074;2023-12-14T03:03:44;99025.37;;;3.85;100.00
75794;BME280;64418;47.536;19.074;2023-12-14T03:06:10;99012.66;;;3.94;100.00
75794;BME280;64418;47.536;19.074;2023-12-14T03:08:36;99013.09;;;3.98;100.00
75794;BME280;64418;47.536;19.074;2023-12-14T03:11:02;99021.97;;;4.05;100.00
75794;BME280;64418;47.536;19.074;2023-12-14T03:13:28;99026.13;;;4.07;100.00
75794;BME280;64418;47.536;19.074;2023-12-14T03:15:56;99042.22;;;4.07;100.00
75794;BME280;64418;47.536;19.074;2023-12-14T03:18:21;99055.78;;;4.06;100.00
75794;BME280;64418;47.536;19.074;2023-12-14T03:20:47;99058.28;;;4.07;100.00
75794;BME280;64418;47.536;19.074;2023-12-14T03:23:13;99069.44;;;4.11;100.00
75794;BME280;64418;47.536;19.074;2023-12-14T03:25:39;99065.94;;;4.10;100.00
75794;BME280;64418;47.536;19.074;2023-12-14T03:28:05;99076.00;;;4.08;100.00
75794;BME280;64418;47.536;19.074;2023-12-14T03:30:31;99076.84;;;4.09;100.00
75794;BME280;64418;47.536;19.074;2023-12-14T03:32:59;99079.09;;;4.05;100.00
75794;BME280;64418;47.536;19.074;2023-12-14T03:35:24;99085.28;;;4.06;100.00
75794;BME280;64418;47.536;19.074;2023-12-14T03:37:50;99092.03;;;4.02;100.00
75794;BME280;64418;47.536;19.074;2023-12-14T03:40:16;99092.03;;;4.02;100.00
75794;BME280;64418;47.536;19.074;2023-12-14T03:42:41;99098.81;;;3.98;100.00
75794;BME280;64418;47.536;19.074;2023-12-14T03:45:08;99107.25;;;3.95;100.00
75794;BME280;64418;47.536;19.074;2023-12-14T03:47:34;99106.63;;;3.93;100.00
75794;BME280;64418;47.536;19.074;2023-12-14T03:50:01;99118.16;;;3.93;100.00
75794;BME280;64418;47.536;19.074;2023-12-14T03:52:27;99121.66;;;3.94;100.00
75794;BME280;64418;47.536;19.074;2023-12-14T03:54:53;99127.03;;;3.94;100.00
75794;BME280;64418;47.536;19.074;2023-12-14T03:57:19;99140.22;;;3.95;100.00
75794;BME280;64418;47.536;19.074;2023-12-14T03:59:45;99139.66;;;4.00;100.00
75794;BME280;64418;47.536;19.074;2023-12-14T04:02:11;99136.16;;;3.99;100.00
75794;BME280;64418;47.536;19.074;2023-12-14T04:04:38;99139.00;;;3.98;100.00
75794;BME280;64418;47.536;19.074;2023-12-14T04:07:05;99139.41;;;3.95;100.00
75794;BME280;64418;47.536;19.074;2023-12-14T04:09:31;99147.25;;;3.96;100.00
75794;BME280;64418;47.536;19.074;2023-12-14T04:11:56;99146.22;;;3.97;100.00
75794;BME280;64418;47.536;19.074;2023-12-14T04:14:22;99146.00;;;3.92;100.00
75794;BME280;64418;47.536;19.074;2023-12-14T04:16:48;99135.62;;;3.89;100.00
75794;BME280;64418;47.536;19.074;2023-12-14T04:19:14;99139.94;;;3.83;100.00
75794;BME280;64418;47.536;19.074;2023-12-14T04:21:40;99152.09;;;3.86;100.00
75794;BME280;64418;47.536;19.074;2023-12-14T04:24:07;99155.63;;;3.86;100.00
75794;BME280;64418;47.536;19.074;2023-12-14T04:26:33;99127.47;;;3.69;100.00
75794;BME280;64418;47.536;19.074;2023-12-14T04:28:59;99147.97;;;3.83;100.00
75794;BME280;64418;47.536;19.074;2023-12-14T04:31:25;99148.81;;;3.84;100.00
75794;BME280;64418;47.536;19.074;2023-12-14T04:33:51;99153.31;;;3.83;100.00
75794;BME280;64418;47.536;19.074;2023-12-14T04:36:17;99161.75;;;3.80;100.00
75794;BME280;64418;47.536;19.074;2023-12-14T04:38:43;99161.94;;;3.79;100.00
75794;BME280;64418;47.536;19.074;2023-12-14T04:41:11;99155.81;;;3.85;100.00
75794;BME280;64418;47.536;19.074;2023-12-14T04:43:36;99161.34;;;3.83;100.00
75794;BME280;64418;47.536;19.074;2023-12-14T04:46:02;99158.28;;;3.86;100.00
75794;BME280;64418;47.536;19.074;2023-12-14T04:48:28;99163.66;;;3.86;100.00
75794;BME280;64418;47.536;19.074;2023-12-14T04:50:54;99171.91;;;3.85;100.00
75794;BME280;64418;47.536;19.074;2023-12-14T04:53:20;99180.50;;;3.80;100.00
75794;BME280;64418;47.536;19.074;2023-12-14T04:55:46;99170.19;;;3.77;100.00
75794;BME280;64418;47.536;19.074;2023-12-14T04:58:14;99190.97;;;3.75;100.00
75794;BME280;64418;47.536;19.074;2023-12-14T05:00:39;99195.03;;;3.71;100.00
75794;BME280;64418;47.536;19.074;2023-12-14T05:03:05;99196.50;;;3.74;100.00
75794;BME280;64418;47.536;19.074;2023-12-14T05:05:31;99193.56;;;3.69;100.00
75794;BME280;64418;47.536;19.074;2023-12-14T05:07:58;99186.78;;;3.66;100.00
75794;BME280;64418;47.536;19.074;2023-12-14T05:10:23;99182.41;;;3.65;100.00
75794;BME280;64418;47.536;19.074;2023-12-14T05:12:49;99156.00;;;3.41;100.00
75794;BME280;64418;47.536;19.074;2023-12-14T05:15:19;99197.84;;;3.63;100.00
75794;BME280;64418;47.536;19.074;2023-12-14T05:17:46;99193.53;;;3.62;100.00
75794;BME280;64418;47.536;19.074;2023-12-14T05:20:12;99198.88;;;3.62;100.00
75794;BME280;64418;47.536;19.074;2023-12-14T05:22:38;99194.53;;;3.61;100.00
75794;BME280;64418;47.536;19.074;2023-12-14T05:25:05;99203.19;;;3.63;100.00
75794;BME280;64418;47.536;19.074;2023-12-14T05:27:31;99210.38;;;3.63;100.00
75794;BME280;64418;47.536;19.074;2023-12-14T05:29:56;99205.25;;;3.61;100.00
75794;BME280;64418;47.536;19.074;2023-12-14T05:32:24;99219.25;;;3.63;100.00
75794;BME280;64418;47.536;19.074;2023-12-14T05:34:50;99225.44;;;3.64;100.00
75794;BME280;64418;47.536;19.074;2023-12-14T05:37:16;99231.81;;;3.63;100.00
75794;BME280;64418;47.536;19.074;2023-12-14T05:39:42;99233.47;;;3.64;100.00
75794;BME280;64418;47.536;19.074;2023-12-14T05:42:08;99232.66;;;3.63;100.00
75794;BME280;64418;47.536;19.074;2023-12-14T05:44:34;99248.34;;;3.66;100.00
75794;BME280;64418;47.536;19.074;2023-12-14T05:47:00;99237.81;;;3.65;100.00
75794;BME280;64418;47.536;19.074;2023-12-14T05:49:27;99260.09;;;3.65;100.00
75794;BME280;64418;47.536;19.074;2023-12-14T05:51:53;99258.25;;;3.66;100.00
75794;BME280;64418;47.536;19.074;2023-12-14T05:54:19;99266.44;;;3.64;100.00
75794;BME280;64418;47.536;19.074;2023-12-14T05:56:45;99268.94;;;3.66;100.00
75794;BME280;64418;47.536;19.074;2023-12-14T05:59:12;99268.13;;;3.65;100.00
75794;BME280;64418;47.536;19.074;2023-12-14T06:01:37;99280.50;;;3.66;100.00
75794;BME280;64418;47.536;19.074;2023-12-14T06:04:06;99280.09;;;3.69;100.00
75794;BME280;64418;47.536;19.074;2023-12-14T06:06:33;99282.97;;;3.68;100.00
75794;BME280;64418;47.536;19.074;2023-12-14T06:08:59;99287.31;;;3.69;100.00
75794;BME280;64418;47.536;19.074;2023-12-14T06:11:25;99284.44;;;3.70;100.00
75794;BME280;64418;47.536;19.074;2023-12-14T06:13:51;99288.53;;;3.66;100.00
75794;BME280;64418;47.536;19.074;2023-12-14T06:16:17;99286.66;;;3.67;100.00
75794;BME280;64418;47.536;19.074;2023-12-14T06:18:42;99282.50;;;3.64;100.00
75794;BME280;64418;47.536;19.074;2023-12-14T06:21:08;99291.56;;;3.63;100.00
75794;BME280;64418;47.536;19.074;2023-12-14T06:23:36;99291.38;;;3.65;100.00
75794;BME280;64418;47.536;19.074;2023-12-14T06:26:03;99290.38;;;3.66;100.00
75794;BME280;64418;47.536;19.074;2023-12-14T06:28:29;99287.25;;;3.62;100.00
75794;BME280;64418;47.536;19.074;2023-12-14T06:30:55;99289.09;;;3.62;100.00
75794;BME280;64418;47.536;19.074;2023-12-14T06:33:22;99296.56;;;3.66;100.00
75794;BME280;64418;47.536;19.074;2023-12-14T06:35:49;99303.94;;;3.64;100.00
75794;BME280;64418;47.536;19.074;2023-12-14T06:38:15;99305.84;;;3.70;100.00
75794;BME280;64418;47.536;19.074;2023-12-14T06:40:42;99295.78;;;3.72;100.00
75794;BME280;64418;47.536;19.074;2023-12-14T06:43:09;99300.50;;;3.70;100.00
75794;BME280;64418;47.536;19.074;2023-12-14T06:45:37;99305.94;;;3.77;100.00
75794;BME280;64418;47.536;19.074;2023-12-14T06:48:03;99310.84;;;3.73;100.00
75794;BME280;64418;47.536;19.074;2023-12-14T06:50:29;99314.34;;;3.74;100.00
75794;BME280;64418;47.536;19.074;2023-12-14T06:52:55;99316.38;;;3.72;100.00
75794;BME280;64418;47.536;19.074;2023-12-14T06:55:20;99325.53;;;3.77;100.00
75794;BME280;64418;47.536;19.074;2023-12-14T06:57:48;99324.50;;;3.78;100.00
75794;BME280;64418;47.536;19.074;2023-12-14T07:00:14;99322.91;;;3.84;100.00
75794;BME280;64418;47.536;19.074;2023-12-14T07:02:43;99329.72;;;3.86;100.00
75794;BME280;64418;47.536;19.074;2023-12-14T07:05:10;99333.44;;;3.85;100.00
75794;BME280;64418;47.536;19.074;2023-12-14T07:07:37;99335.47;;;3.83;100.00
75794;BME280;64418;47.536;19.074;2023-12-14T07:10:04;99342.50;;;3.84;100.00
75794;BME280;64418;47.536;19.074;2023-12-14T07:12:31;99340.84;;;3.83;100.00
75794;BME280;64418;47.536;19.074;2023-12-14T07:15:00;99355.91;;;3.84;100.00
75794;BME280;64418;47.536;19.074;2023-12-14T07:17:27;99358.66;;;3.91;100.00
75794;BME280;64418;47.536;19.074;2023-12-14T07:19:57;99360.50;;;3.91;100.00
75794;BME280;64418;47.536;19.074;2023-12-14T07:22:25;99370.00;;;3.93;100.00
75794;BME280;64418;47.536;19.074;2023-12-14T07:24:51;99365.09;;;3.97;100.00
75794;BME280;64418;47.536;19.074;2023-12-14T07:27:18;99375.44;;;4.00;100.00
75794;BME280;64418;47.536;19.074;2023-12-14T07:29:47;99377.75;;;4.03;100.00
75794;BME280;64418;47.536;19.074;2023-12-14T07:32:16;99381.94;;;4.12;100.00
75794;BME280;64418;47.536;19.074;2023-12-14T07:34:42;99383.63;;;4.13;100.00
75794;BME280;64418;47.536;19.074;2023-12-14T07:37:08;99381.78;;;4.13;100.00
75794;BME280;64418;47.536;19.074;2023-12-14T07:39:34;99396.84;;;4.14;100.00
75794;BME280;64418;47.536;19.074;2023-12-14T07:42:01;99391.87;;;4.11;100.00
75794;BME280;64418;47.536;19.074;2023-12-14T07:44:27;99398.69;;;4.14;100.00
75794;BME280;64418;47.536;19.074;2023-12-14T07:46:52;99391.94;;;4.18;100.00
75794;BME280;64418;47.536;19.074;2023-12-14T07:49:20;99400.97;;;4.17;100.00
75794;BME280;64418;47.536;19.074;2023-12-14T07:51:46;99407.81;;;4.19;100.00
75794;BME280;64418;47.536;19.074;2023-12-14T07:54:12;99405.22;;;4.26;100.00
75794;BME280;64418;47.536;19.074;2023-12-14T07:56:38;99406.06;;;4.26;100.00
75794;BME280;64418;47.536;19.074;2023-12-14T07:59:04;99407.69;;;4.27;100.00
75794;BME280;64418;47.536;19.074;2023-12-14T08:01:30;99427.13;;;4.29;100.00
75794;BME280;64418;47.536;19.074;2023-12-14T08:03:57;99400.25;;;4.23;100.00
75794;BME280;64418;47.536;19.074;2023-12-14T08:06:25;99420.91;;;4.29;100.00
75794;BME280;64418;47.536;19.074;2023-12-14T08:08:50;99430.50;;;4.38;100.00
75794;BME280;64418;47.536;19.074;2023-12-14T08:11:16;99405.13;;;4.19;100.00
75794;BME280;64418;47.536;19.074;2023-12-14T08:13:42;99437.97;;;4.43;100.00
75794;BME280;64418;47.536;19.074;2023-12-14T08:16:08;99446.84;;;4.43;100.00
75794;BME280;64418;47.536;19.074;2023-12-14T08:18:34;99450.75;;;4.41;100.00
75794;BME280;64418;47.536;19.074;2023-12-14T08:21:00;99447.78;;;4.35;100.00
75794;BME280;64418;47.536;19.074;2023-12-14T08:23:27;99444.94;;;4.37;100.00
75794;BME280;64418;47.536;19.074;2023-12-14T08:25:53;99443.91;;;4.38;100.00
75794;BME280;64418;47.536;19.074;2023-12-14T08:28:19;99454.44;;;4.40;100.00
75794;BME280;64418;47.536;19.074;2023-12-14T08:30:46;99458.22;;;4.45;100.00
75794;BME280;64418;47.536;19.074;2023-12-14T08:33:11;99462.53;;;4.46;100.00
75794;BME280;64418;47.536;19.074;2023-12-14T08:35:37;99465.69;;;4.50;100.00
75794;BME280;64418;47.536;19.074;2023-12-14T08:38:03;99468.19;;;4.51;100.00
75794;BME280;64418;47.536;19.074;2023-12-14T08:40:30;99468.19;;;4.51;100.00
75794;BME280;64418;47.536;19.074;2023-12-14T08:42:57;99461.25;;;4.57;100.00
75794;BME280;64418;47.536;19.074;2023-12-14T08:45:23;99471.75;;;4.58;100.00
75794;BME280;64418;47.536;19.074;2023-12-14T08:47:49;99469.53;;;4.62;100.00
75794;BME280;64418;47.536;19.074;2023-12-14T08:50:16;99465.00;;;4.62;100.00
75794;BME280;64418;47.536;19.074;2023-12-14T08:52:42;99472.28;;;4.68;100.00
75794;BME280;64418;47.536;19.074;2023-12-14T08:55:08;99476.63;;;4.69;100.00
75794;BME280;64418;47.536;19.074;2023-12-14T08:57:35;99479.75;;;4.73;100.00
75794;BME280;64418;47.536;19.074;2023-12-14T09:00:01;99475.87;;;4.75;100.00
75794;BME280;64418;47.536;19.074;2023-12-14T09:02:28;99475.87;;;4.75;100.00
75794;BME280;64418;47.536;19.074;2023-12-14T09:04:54;99470.88;;;4.72;100.00
75794;BME280;64418;47.536;19.074;2023-12-14T09:07:20;99483.78;;;4.83;100.00
75794;BME280;64418;47.536;19.074;2023-12-14T09:09:46;99488.38;;;4.90;100.00
75794;BME280;64418;47.536;19.074;2023-12-14T09:12:12;99487.94;;;4.86;100.00
75794;BME280;64418;47.536;19.074;2023-12-14T09:14:40;99494.47;;;4.98;100.00
75794;BME280;64418;47.536;19.074;2023-12-14T09:17:06;99500.91;;;5.04;100.00
75794;BME280;64418;47.536;19.074;2023-12-14T09:19:33;99503.41;;;5.05;100.00
75794;BME280;64418;47.536;19.074;2023-12-14T09:21:58;99499.31;;;5.09;100.00
75794;BME280;64418;47.536;19.074;2023-12-14T09:24:24;99491.06;;;5.11;100.00
75794;BME280;64418;47.536;19.074;2023-12-14T09:26:50;99502.31;;;5.21;100.00
75794;BME280;64418;47.536;19.074;2023-12-14T09:29:16;99491.56;;;5.21;100.00
75794;BME280;64418;47.536;19.074;2023-12-14T09:31:45;99510.41;;;5.27;100.00
75794;BME280;64418;47.536;19.074;2023-12-14T09:34:12;99507.78;;;5.34;100.00
75794;BME280;64418;47.536;19.074;2023-12-14T09:36:39;99502.41;;;5.34;100.00
75794;BME280;64418;47.536;19.074;2023-12-14T09:39:05;99510.72;;;5.39;100.00
75794;BME280;64418;47.536;19.074;2023-12-14T09:41:31;99516.09;;;5.39;100.00
75794;BME280;64418;47.536;19.074;2023-12-14T09:43:57;99525.44;;;5.43;100.00
75794;BME280;64418;47.536;19.074;2023-12-14T09:46:24;99530.66;;;5.51;100.00
75794;BME280;64418;47.536;19.074;2023-12-14T09:48:54;99527.97;;;5.51;100.00
75794;BME280;64418;47.536;19.074;2023-12-14T09:51:21;99530.06;;;5.56;100.00
75794;BME280;64418;47.536;19.074;2023-12-14T09:53:47;99523.47;;;5.58;100.00
75794;BME280;64418;47.536;19.074;2023-12-14T09:56:12;99523.69;;;5.63;100.00
75794;BME280;64418;47.536;19.074;2023-12-14T09:58:38;99522.09;;;5.69;100.00
75794;BME280;64418;47.536;19.074;2023-12-14T10:01:21;99526.81;;;5.67;100.00
75794;BME280;64418;47.536;19.074;2023-12-14T10:03:47;99530.03;;;5.77;100.00
75794;BME280;64418;47.536;19.074;2023-12-14T10:06:14;99528.78;;;5.79;100.00
75794;BME280;64418;47.536;19.074;2023-12-14T10:08:40;99535.44;;;5.83;100.00
75794;BME280;64418;47.536;19.074;2023-12-14T10:11:15;99538.44;;;5.95;100.00
75794;BME280;64418;47.536;19.074;2023-12-14T10:13:41;99535.16;;;6.00;100.00
75794;BME280;64418;47.536;19.074;2023-12-14T10:16:07;99536.47;;;6.10;100.00
75794;BME280;64418;47.536;19.074;2023-12-14T10:18:33;99538.56;;;6.15;100.00
75794;BME280;64418;47.536;19.074;2023-12-14T10:20:59;99539.00;;;6.18;100.00
75794;BME280;64418;47.536;19.074;2023-12-14T10:23:27;99539.00;;;6.25;100.00
75794;BME280;64418;47.536;19.074;2023-12-14T10:25:54;99552.13;;;6.41;100.00
75794;BME280;64418;47.536;19.074;2023-12-14T10:28:24;99551.31;;;6.47;100.00
75794;BME280;64418;47.536;19.074;2023-12-14T10:30:50;99557.28;;;6.36;100.00
75794;BME280;64418;47.536;19.074;2023-12-14T10:33:16;99557.81;;;6.59;100.00
75794;BME280;64418;47.536;19.074;2023-12-14T10:35:42;99558.66;;;6.66;100.00
75794;BME280;64418;47.536;19.074;2023-12-14T10:38:09;99556.31;;;6.50;100.00
75794;BME280;64418;47.536;19.074;2023-12-14T10:40:37;99557.03;;;6.72;100.00
75794;BME280;64418;47.536;19.074;2023-12-14T10:43:06;99559.50;;;6.67;100.00
75794;BME280;64418;47.536;19.074;2023-12-14T10:45:33;99567.31;;;6.62;100.00
75794;BME280;64418;47.536;19.074;2023-12-14T10:47:59;99571.06;;;6.61;100.00
75794;BME280;64418;47.536;19.074;2023-12-14T10:50:29;99574.53;;;6.48;100.00
75794;BME280;64418;47.536;19.074;2023-12-14T10:52:55;99580.50;;;6.50;100.00
75794;BME280;64418;47.536;19.074;2023-12-14T10:55:26;99568.50;;;6.46;100.00
75794;BME280;64418;47.536;19.074;2023-12-14T10:57:55;99576.44;;;6.61;100.00
75794;BME280;64418;47.536;19.074;2023-12-14T11:00:22;99572.66;;;6.49;100.00
75794;BME280;64418;47.536;19.074;2023-12-14T11:02:48;99565.53;;;6.35;100.00
75794;BME280;64418;47.536;19.074;2023-12-14T11:05:18;99589.97;;;6.33;100.00
75794;BME280;64418;47.536;19.074;2023-12-14T11:07:50;99600.72;;;6.33;100.00
75794;BME280;64418;47.536;19.074;2023-12-14T11:10:21;99592.81;;;6.25;100.00
75794;BME280;64418;47.536;19.074;2023-12-14T11:12:51;99599.78;;;6.19;100.00
75794;BME280;64418;47.536;19.074;2023-12-14T11:15:19;99603.16;;;6.28;100.00
75794;BME280;64418;47.536;19.074;2023-12-14T11:18:22;99605.06;;;6.34;100.00
75794;BME280;64418;47.536;19.074;2023-12-14T11:20:50;99599.63;;;6.27;100.00
75794;BME280;64418;47.536;19.074;2023-12-14T11:23:17;99601.56;;;6.34;100.00
75794;BME280;64418;47.536;19.074;2023-12-14T11:25:52;99605.44;;;6.31;100.00
75794;BME280;64418;47.536;19.074;2023-12-14T11:28:18;99600.97;;;6.38;100.00
75794;BME280;64418;47.536;19.074;2023-12-14T11:30:46;99596.44;;;6.45;100.00
75794;BME280;64418;47.536;19.074;2023-12-14T11:33:12;99600.31;;;6.36;100.00
75794;BME280;64418;47.536;19.074;2023-12-14T11:35:38;99603.19;;;6.35;100.00
75794;BME280;64418;47.536;19.074;2023-12-14T11:38:05;99609.03;;;6.38;100.00
75794;BME280;64418;47.536;19.074;2023-12-14T11:40:31;99607.41;;;6.50;100.00
75794;BME280;64418;47.536;19.074;2023-12-14T11:42:58;99605.22;;;6.60;100.00
75794;BME280;64418;47.536;19.074;2023-12-14T11:45:23;99611.47;;;6.74;100.00
75794;BME280;64418;47.536;19.074;2023-12-14T11:47:51;99608.59;;;6.75;100.00
75794;BME280;64418;47.536;19.074;2023-12-14T11:50:17;99612.59;;;6.93;100.00
75794;BME280;64418;47.536;19.074;2023-12-14T11:53:05;99604.34;;;7.01;100.00
75794;BME280;64418;47.536;19.074;2023-12-14T11:55:32;99611.34;;;6.95;100.00
75794;BME280;64418;47.536;19.074;2023-12-14T11:58:03;99609.47;;;6.96;100.00
75794;BME280;64418;47.536;19.074;2023-12-14T12:00:31;99604.75;;;7.11;100.00
75794;BME280;64418;47.536;19.074;2023-12-14T12:03:10;99611.81;;;7.12;100.00
75794;BME280;64418;47.536;19.074;2023-12-14T12:05:36;99627.63;;;7.41;100.00
75794;BME280;64418;47.536;19.074;2023-12-14T12:08:02;99628.22;;;7.30;100.00
75794;BME280;64418;47.536;19.074;2023-12-14T12:10:28;99623.88;;;7.29;100.00
75794;BME280;64418;47.536;19.074;2023-12-14T12:12:59;99624.94;;;7.28;100.00
75794;BME280;64418;47.536;19.074;2023-12-14T12:15:25;99633.84;;;7.42;100.00
75794;BME280;64418;47.536;19.074;2023-12-14T12:17:51;99628.66;;;7.40;100.00
75794;BME280;64418;47.536;19.074;2023-12-14T12:20:19;99633.44;;;7.38;100.00
75794;BME280;64418;47.536;19.074;2023-12-14T12:22:45;99639.91;;;7.50;100.00
75794;BME280;64418;47.536;19.074;2023-12-14T12:25:11;99644.69;;;7.61;100.00
75794;BME280;64418;47.536;19.074;2023-12-14T12:27:37;99643.03;;;7.73;100.00
75794;BME280;64418;47.536;19.074;2023-12-14T12:30:03;99646.34;;;8.02;100.00
75794;BME280;64418;47.536;19.074;2023-12-14T12:32:30;99647.59;;;8.32;100.00
75794;BME280;64418;47.536;19.074;2023-12-14T12:34:56;99648.66;;;8.38;100.00
75794;BME280;64418;47.536;19.074;2023-12-14T12:37:23;99658.78;;;8.55;100.00
75794;BME280;64418;47.536;19.074;2023-12-14T12:39:49;99657.13;;;8.61;100.00
75794;BME280;64418;47.536;19.074;2023-12-14T12:42:15;99663.72;;;8.65;100.00
75794;BME280;64418;47.536;19.074;2023-12-14T12:44:40;99666.03;;;8.61;100.00
75794;BME280;64418;47.536;19.074;2023-12-14T12:47:06;99677.50;;;8.11;100.00